Limby, Iowa
Current Conditions -  °F | °C
As of 7:35 AM on Friday 19 Dec 2014 (Local Time) from KFFL Reporting Station
Haze Haze  
Wind Chill: 21°   Ceiling: 2500
Heat Index: 27°   Visibility: 6mi
Dew Point: 23°   Wind: 5mph
Humidity: 86%   Direction: 110°ESE
Pressure: 30.29"   Gusts: NA
Location:  41.1197°N, 92.063°W
Report Text: KFFL 191335Z AUTO 11004KT 6SM BR BKN025 OVC050 M03/M05 A3029 RMK AO2
Loading
Personal Weather Stations






























Interactive Weather Map New forecast layout! Learn more

10-Day Weather Forecast

Advertisements
Track Severe Weather on mobile